createdAt,value
2018-12-23T00:02:34.867Z,39.30
2018-12-23T00:07:39.127Z,38.93
2018-12-23T00:12:44.189Z,30.33
2018-12-23T00:17:48.651Z,46.57
2018-12-23T00:22:53.183Z,30.67
2018-12-23T00:27:58.877Z,37.33
2018-12-23T00:33:03.279Z,44.40
2018-12-23T00:38:07.968Z,28.57
2018-12-23T00:43:14.782Z,33.97
2018-12-23T00:48:18.991Z,23.53
2018-12-23T00:53:23.197Z,30.20
2018-12-23T00:58:27.411Z,79.97
2018-12-23T01:03:31.646Z,26.40
2018-12-23T01:08:35.811Z,22.13
2018-12-23T01:13:39.972Z,22.67
2018-12-23T01:18:44.305Z,39.40
2018-12-23T01:23:48.486Z,32.93
2018-12-23T01:28:52.808Z,25.20
2018-12-23T01:33:56.951Z,30.80
2018-12-23T01:39:01.363Z,33.00
2018-12-23T01:44:05.649Z,42.07
2018-12-23T01:49:09.726Z,31.43
2018-12-23T01:54:13.789Z,30.13
2018-12-23T01:59:17.904Z,31.33
2018-12-23T02:04:22.065Z,48.73
2018-12-23T02:09:26.168Z,28.77
2018-12-23T02:14:30.262Z,45.53
2018-12-23T02:19:34.432Z,34.63
2018-12-23T02:24:38.470Z,89.17
2018-12-23T02:29:42.764Z,30.43
2018-12-23T02:34:46.953Z,54.10
2018-12-23T02:39:51.018Z,24.53
2018-12-23T02:44:55.129Z,24.90
2018-12-23T02:49:59.478Z,48.37
2018-12-23T02:55:04.040Z,24.67
2018-12-23T03:00:09.110Z,17.60
2018-12-23T03:05:13.253Z,23.40
2018-12-23T03:10:17.483Z,29.80
2018-12-23T03:15:21.618Z,35.07
2018-12-23T03:20:25.837Z,25.63
2018-12-23T03:25:30.388Z,28.67
2018-12-23T03:30:34.483Z,37.70
2018-12-23T03:35:38.561Z,22.73
2018-12-23T03:40:42.627Z,23.93
2018-12-23T03:45:46.706Z,35.27
2018-12-23T03:50:51.063Z,22.70
2018-12-23T03:55:55.176Z,25.33
2018-12-23T04:00:59.231Z,34.53
2018-12-23T04:06:03.291Z,28.57
2018-12-23T04:11:07.427Z,26.17
2018-12-23T04:16:11.562Z,32.67
2018-12-23T04:21:15.651Z,32.50
2018-12-23T04:26:19.789Z,81.30
2018-12-23T04:31:23.905Z,32.83
2018-12-23T04:36:33.969Z,69.07
2018-12-23T04:41:34.143Z,72.17
2018-12-23T04:46:38.392Z,104.97
2018-12-23T04:51:42.473Z,78.13
2018-12-23T04:56:46.567Z,67.37
2018-12-23T05:01:50.656Z,72.20
2018-12-23T05:06:54.775Z,61.20
2018-12-23T05:11:58.923Z,102.50
2018-12-23T05:17:03.072Z,96.53
2018-12-23T05:22:08.553Z,79.17
2018-12-23T05:27:12.592Z,81.80
2018-12-23T05:32:16.797Z,59.03
2018-12-23T05:37:21.003Z,44.83
2018-12-23T05:42:25.154Z,29.43
2018-12-23T05:47:29.234Z,72.87
2018-12-23T05:52:33.399Z,27.97
2018-12-23T05:57:37.438Z,32.97
2018-12-23T06:02:41.541Z,28.37
2018-12-23T06:07:45.698Z,32.03
2018-12-23T06:12:49.779Z,30.43
2018-12-23T06:17:53.919Z,26.90
2018-12-23T06:22:58.266Z,33.20
2018-12-23T06:28:02.384Z,43.73
2018-12-23T06:33:06.557Z,43.27
2018-12-23T06:38:10.701Z,35.80
2018-12-23T06:43:14.914Z,26.87
2018-12-23T06:48:18.965Z,35.80
2018-12-23T06:53:23.029Z,46.47
2018-12-23T06:58:27.810Z,39.07
2018-12-23T07:03:31.958Z,44.40
2018-12-23T07:08:36.098Z,51.20
2018-12-23T07:13:40.138Z,31.53
2018-12-23T07:18:44.261Z,40.43
2018-12-23T07:23:48.387Z,39.33
2018-12-23T07:28:52.486Z,61.17
2018-12-23T07:33:56.627Z,41.07
2018-12-23T07:39:01.050Z,34.80
2018-12-23T07:44:05.162Z,60.40
2018-12-23T07:49:09.238Z,68.33
2018-12-23T07:54:13.383Z,29.37
2018-12-23T07:59:17.491Z,29.97
2018-12-23T08:04:21.600Z,25.87
2018-12-23T08:09:25.870Z,28.67
2018-12-23T08:14:30.175Z,35.13
2018-12-23T08:19:34.533Z,38.00
2018-12-23T08:24:38.655Z,37.87
2018-12-23T08:29:42.904Z,37.07
2018-12-23T08:34:46.954Z,27.87
2018-12-23T08:39:51.122Z,38.03
2018-12-23T08:44:55.678Z,30.73
2018-12-23T08:49:59.860Z,42.50
2018-12-23T08:55:04.460Z,36.03
2018-12-23T09:00:09.070Z,42.67
2018-12-23T09:05:13.307Z,61.03
2018-12-23T09:10:17.503Z,43.03
2018-12-23T09:15:21.886Z,44.47
2018-12-23T09:20:26.080Z,42.57
2018-12-23T09:25:30.276Z,43.27
2018-12-23T09:30:38.383Z,53.53
2018-12-23T09:35:42.909Z,76.50
2018-12-23T09:40:47.417Z,104.47
2018-12-23T09:45:51.898Z,104.40
2018-12-23T09:50:55.970Z,120.23
2018-12-23T09:56:00.006Z,81.47
2018-12-23T10:01:04.121Z,130.70
2018-12-23T10:06:08.236Z,93.33
2018-12-23T10:11:12.306Z,72.47
2018-12-23T10:16:16.407Z,71.83
2018-12-23T10:21:21.190Z,73.60
2018-12-23T10:26:25.253Z,56.00
2018-12-23T10:31:29.277Z,54.90
2018-12-23T10:36:33.313Z,56.77
2018-12-23T10:41:37.816Z,35.20
2018-12-23T10:46:41.849Z,33.63
2018-12-23T10:51:45.890Z,47.50
2018-12-23T10:56:50.004Z,42.93
2018-12-23T11:01:54.077Z,36.03
2018-12-23T11:06:58.122Z,54.27
2018-12-23T11:12:02.172Z,62.07
2018-12-23T11:17:06.214Z,34.57
2018-12-23T11:22:10.315Z,40.77
2018-12-23T11:27:14.341Z,32.20
2018-12-23T11:32:18.399Z,37.27
2018-12-23T11:37:22.443Z,44.50
2018-12-23T11:42:26.912Z,38.43
2018-12-23T11:47:30.945Z,31.80
2018-12-23T11:52:35.023Z,66.20
2018-12-23T11:57:39.095Z,35.20
2018-12-23T12:02:43.961Z,57.40
2018-12-23T12:07:48.119Z,87.93
2018-12-23T12:12:52.206Z,57.83
2018-12-23T12:17:56.346Z,37.03
2018-12-23T12:23:00.482Z,39.13
2018-12-23T12:28:04.641Z,43.27
2018-12-23T12:33:08.776Z,30.47
2018-12-23T12:38:12.917Z,26.83
2018-12-23T12:43:16.990Z,49.73
2018-12-23T12:48:21.084Z,46.37
2018-12-23T12:53:25.215Z,86.10
2018-12-23T12:58:29.584Z,79.60
2018-12-23T13:03:33.609Z,56.70
2018-12-23T13:08:37.723Z,52.00
2018-12-23T13:13:42.534Z,71.27
2018-12-23T13:18:46.610Z,85.37
2018-12-23T13:23:50.871Z,76.80
2018-12-23T13:28:55.041Z,63.20
2018-12-23T13:33:59.125Z,55.10
2018-12-23T13:39:08.909Z,49.80
2018-12-23T13:44:20.738Z,65.57
2018-12-23T13:49:53.339Z,57.63
2018-12-23T13:55:41.026Z,60.57
2018-12-23T14:00:52.565Z,65.77
2018-12-23T14:06:07.057Z,50.93
2018-12-23T14:11:24.005Z,59.17
2018-12-23T14:16:28.068Z,54.87
2018-12-23T14:21:32.232Z,67.10
2018-12-23T14:26:36.355Z,84.40
2018-12-23T14:31:40.488Z,56.77
2018-12-23T14:36:44.514Z,51.10
2018-12-23T14:41:48.644Z,51.77
2018-12-23T14:46:52.782Z,46.43
2018-12-23T14:51:56.811Z,50.20
2018-12-23T14:57:00.974Z,62.00
2018-12-23T15:02:05.014Z,63.83
2018-12-23T15:07:09.024Z,60.20
2018-12-23T15:12:13.149Z,62.50
2018-12-23T15:17:17.496Z,48.43
2018-12-23T15:22:21.527Z,48.67
2018-12-23T15:27:25.622Z,51.57
2018-12-23T15:32:29.734Z,49.17
2018-12-23T15:37:33.767Z,38.17
2018-12-23T15:42:37.898Z,33.63
2018-12-23T15:47:42.015Z,24.93
2018-12-23T15:52:47.032Z,16.63
2018-12-23T15:57:51.070Z,16.37
2018-12-23T16:02:55.845Z,15.00
2018-12-23T16:07:59.906Z,16.00
2018-12-23T16:13:04.078Z,11.43
2018-12-23T16:18:08.160Z,15.17
2018-12-23T16:23:12.253Z,16.33
2018-12-23T16:28:16.368Z,14.77
2018-12-23T16:33:21.214Z,18.23
2018-12-23T16:38:59.338Z,16.67
2018-12-23T16:44:04.287Z,16.20
2018-12-23T16:49:09.265Z,22.37
2018-12-23T16:54:14.229Z,16.30
2018-12-23T16:59:20.458Z,15.87
2018-12-23T17:04:25.424Z,18.40
2018-12-23T17:09:30.383Z,21.37
2018-12-23T17:14:35.394Z,13.83
2018-12-23T17:19:40.351Z,13.13
2018-12-23T17:24:45.320Z,12.50
2018-12-23T17:29:50.498Z,17.07
2018-12-23T17:34:55.495Z,13.33
2018-12-23T17:40:00.584Z,14.10
2018-12-23T17:45:05.538Z,15.63
2018-12-23T17:50:11.213Z,14.57
2018-12-23T17:55:16.183Z,14.47
2018-12-23T18:00:21.446Z,13.53
2018-12-23T18:05:26.428Z,13.67
2018-12-23T18:10:31.407Z,14.80
2018-12-23T18:15:36.427Z,14.73
2018-12-23T18:20:41.356Z,13.47
2018-12-23T18:25:46.320Z,18.13
2018-12-23T18:30:51.299Z,16.07
2018-12-23T18:35:56.341Z,17.10
2018-12-23T18:41:01.328Z,18.63
2018-12-23T18:46:06.548Z,17.63
2018-12-23T18:51:11.588Z,16.97
2018-12-23T18:56:17.769Z,20.40
2018-12-23T19:01:22.773Z,19.57
2018-12-23T19:06:27.776Z,19.10
2018-12-23T19:12:09.602Z,20.40
2018-12-23T19:17:47.281Z,23.80
2018-12-23T19:23:24.724Z,23.97
2018-12-23T19:28:56.375Z,27.33
2018-12-23T19:35:00.726Z,27.23
2018-12-23T19:40:50.488Z,32.07
2018-12-23T19:46:23.454Z,28.10
2018-12-23T19:52:05.674Z,36.77
2018-12-23T19:57:33.480Z,57.70
2018-12-23T20:03:03.101Z,39.57
2018-12-23T20:08:54.377Z,48.17
2018-12-23T20:14:41.374Z,41.53
2018-12-23T20:20:30.608Z,47.40
2018-12-23T20:26:22.694Z,38.83
2018-12-23T20:32:05.564Z,48.57
2018-12-23T20:37:37.054Z,43.00
2018-12-23T20:43:18.984Z,43.23
2018-12-23T20:49:06.566Z,37.40
2018-12-23T20:55:04.823Z,40.13
2018-12-23T21:00:53.683Z,43.60
2018-12-23T21:06:58.125Z,41.70
2018-12-23T21:12:29.408Z,41.93
2018-12-23T21:18:24.789Z,37.73
2018-12-23T21:24:15.903Z,35.20
2018-12-23T21:30:04.988Z,41.43
2018-12-23T21:35:37.660Z,38.00
2018-12-23T21:41:09.147Z,42.33
2018-12-23T21:46:48.186Z,47.67
2018-12-23T21:52:28.517Z,56.90
2018-12-23T21:58:16.685Z,50.03
2018-12-23T22:03:49.747Z,53.77
2018-12-23T22:09:38.502Z,74.77
2018-12-23T22:14:43.499Z,56.83
2018-12-23T22:19:48.712Z,75.40
2018-12-23T22:24:53.741Z,62.67
2018-12-23T22:29:58.804Z,66.23
2018-12-23T22:35:03.833Z,56.70
2018-12-23T22:40:08.845Z,59.73
2018-12-23T22:45:13.869Z,62.90
2018-12-23T22:50:19.029Z,66.07
2018-12-23T22:55:24.278Z,56.67
2018-12-23T23:00:31.763Z,69.10
2018-12-23T23:05:36.813Z,64.57
2018-12-23T23:10:41.981Z,57.13
2018-12-23T23:15:46.986Z,51.93
2018-12-23T23:20:51.987Z,48.77
2018-12-23T23:25:56.989Z,39.07
2018-12-23T23:31:02.139Z,38.10
2018-12-23T23:36:07.108Z,41.13
2018-12-23T23:41:12.152Z,45.23
2018-12-23T23:46:17.163Z,40.27
2018-12-23T23:51:22.500Z,37.23
2018-12-23T23:56:27.520Z,31.97
